sensor_id;sensor_type;location;lat;lon;timestamp;temperature;humidity
18868;DHT22;9563;49.240;9.088;2023-04-06T05:00:57;1.70;99.90
18868;DHT22;9563;49.240;9.088;2023-04-06T05:03:26;1.60;99.90
18868;DHT22;9563;49.240;9.088;2023-04-06T05:05:53;1.60;99.90
18868;DHT22;9563;49.240;9.088;2023-04-06T05:08:20;1.60;99.90
18868;DHT22;9563;49.240;9.088;2023-04-06T05:10:47;1.50;99.90
18868;DHT22;9563;49.240;9.088;2023-04-06T05:13:14;1.50;99.90
18868;DHT22;9563;49.240;9.088;2023-04-06T05:15:41;1.60;99.90
18868;DHT22;9563;49.240;9.088;2023-04-06T05:18:12;1.70;99.90
18868;DHT22;9563;49.240;9.088;2023-04-06T05:20:39;1.80;99.90
18868;DHT22;9563;49.240;9.088;2023-04-06T05:23:06;1.80;99.90
18868;DHT22;9563;49.240;9.088;2023-04-06T05:25:33;1.80;99.90
18868;DHT22;9563;49.240;9.088;2023-04-06T05:28:00;2.00;99.90
18868;DHT22;9563;49.240;9.088;2023-04-06T05:30:27;2.10;99.90
18868;DHT22;9563;49.240;9.088;2023-04-06T05:32:54;2.20;99.90
18868;DHT22;9563;49.240;9.088;2023-04-06T05:35:23;2.20;99.90
18868;DHT22;9563;49.240;9.088;2023-04-06T05:37:50;2.30;99.90
18868;DHT22;9563;49.240;9.088;2023-04-06T05:40:17;2.30;99.90
18868;DHT22;9563;49.240;9.088;2023-04-06T05:42:44;2.30;99.90
18868;DHT22;9563;49.240;9.088;2023-04-06T05:45:11;2.40;99.90
18868;DHT22;9563;49.240;9.088;2023-04-06T05:47:44;2.30;99.90
18868;DHT22;9563;49.240;9.088;2023-04-06T05:50:11;2.40;99.90
18868;DHT22;9563;49.240;9.088;2023-04-06T05:52:40;2.50;99.90
18868;DHT22;9563;49.240;9.088;2023-04-06T05:55:09;2.60;99.90
18868;DHT22;9563;49.240;9.088;2023-04-06T05:57:36;2.70;99.90
18868;DHT22;9563;49.240;9.088;2023-04-06T06:00:04;2.80;99.90
18868;DHT22;9563;49.240;9.088;2023-04-06T06:02:32;2.70;99.90
18868;DHT22;9563;49.240;9.088;2023-04-06T06:04:59;2.80;99.90
18868;DHT22;9563;49.240;9.088;2023-04-06T06:07:26;2.80;99.90
18868;DHT22;9563;49.240;9.088;2023-04-06T06:09:56;2.90;99.90
18868;DHT22;9563;49.240;9.088;2023-04-06T06:12:23;3.10;99.90
18868;DHT22;9563;49.240;9.088;2023-04-06T06:14:50;3.30;99.90
18868;DHT22;9563;49.240;9.088;2023-04-06T06:17:17;3.30;99.90
18868;DHT22;9563;49.240;9.088;2023-04-06T06:19:45;3.40;99.90
18868;DHT22;9563;49.240;9.088;2023-04-06T06:22:12;3.60;99.90
18868;DHT22;9563;49.240;9.088;2023-04-06T06:24:39;3.70;99.90
18868;DHT22;9563;49.240;9.088;2023-04-06T06:27:07;3.80;99.90
18868;DHT22;9563;49.240;9.088;2023-04-06T06:29:34;3.90;99.90
18868;DHT22;9563;49.240;9.088;2023-04-06T06:32:01;3.90;99.90
18868;DHT22;9563;49.240;9.088;2023-04-06T06:34:28;4.10;99.90
18868;DHT22;9563;49.240;9.088;2023-04-06T06:36:55;4.30;99.90
18868;DHT22;9563;49.240;9.088;2023-04-06T06:39:22;4.40;99.90
18868;DHT22;9563;49.240;9.088;2023-04-06T06:41:50;4.50;99.90
18868;DHT22;9563;49.240;9.088;2023-04-06T06:44:18;4.70;99.90
18868;DHT22;9563;49.240;9.088;2023-04-06T06:46:45;4.80;99.90
18868;DHT22;9563;49.240;9.088;2023-04-06T06:49:12;5.00;99.90
18868;DHT22;9563;49.240;9.088;2023-04-06T06:51:40;5.10;99.90
18868;DHT22;9563;49.240;9.088;2023-04-06T06:54:07;5.20;99.90
18868;DHT22;9563;49.240;9.088;2023-04-06T06:56:34;5.20;99.90
18868;DHT22;9563;49.240;9.088;2023-04-06T06:59:03;5.40;99.90
18868;DHT22;9563;49.240;9.088;2023-04-06T07:01:32;5.60;99.90
18868;DHT22;9563;49.240;9.088;2023-04-06T07:04:00;5.70;99.90
18868;DHT22;9563;49.240;9.088;2023-04-06T07:06:27;5.90;99.90
18868;DHT22;9563;49.240;9.088;2023-04-06T07:08:54;6.20;99.90
18868;DHT22;9563;49.240;9.088;2023-04-06T07:11:21;6.30;99.90
18868;DHT22;9563;49.240;9.088;2023-04-06T07:13:48;6.30;99.90
18868;DHT22;9563;49.240;9.088;2023-04-06T07:16:15;6.60;99.90
18868;DHT22;9563;49.240;9.088;2023-04-06T07:18:44;6.70;99.90
18868;DHT22;9563;49.240;9.088;2023-04-06T07:21:10;6.90;99.90
18868;DHT22;9563;49.240;9.088;2023-04-06T07:23:37;7.20;99.90
18868;DHT22;9563;49.240;9.088;2023-04-06T07:26:05;7.50;99.90
18868;DHT22;9563;49.240;9.088;2023-04-06T07:28:32;7.60;99.90
18868;DHT22;9563;49.240;9.088;2023-04-06T07:31:00;7.70;99.90
18868;DHT22;9563;49.240;9.088;2023-04-06T07:33:26;7.80;99.90
18868;DHT22;9563;49.240;9.088;2023-04-06T07:35:56;8.00;99.90
18868;DHT22;9563;49.240;9.088;2023-04-06T07:38:24;8.00;99.90
18868;DHT22;9563;49.240;9.088;2023-04-06T07:40:51;7.90;99.90
18868;DHT22;9563;49.240;9.088;2023-04-06T07:43:18;7.90;99.90
18868;DHT22;9563;49.240;9.088;2023-04-06T07:45:45;8.10;99.90
18868;DHT22;9563;49.240;9.088;2023-04-06T07:48:12;8.20;99.90
18868;DHT22;9563;49.240;9.088;2023-04-06T07:50:39;8.40;99.90
18868;DHT22;9563;49.240;9.088;2023-04-06T07:53:08;8.40;99.90
18868;DHT22;9563;49.240;9.088;2023-04-06T07:55:36;8.70;99.90
18868;DHT22;9563;49.240;9.088;2023-04-06T07:58:03;8.80;99.90
18868;DHT22;9563;49.240;9.088;2023-04-06T08:00:30;9.00;99.90
18868;DHT22;9563;49.240;9.088;2023-04-06T08:02:57;9.30;99.90
18868;DHT22;9563;49.240;9.088;2023-04-06T08:05:24;9.80;99.90
18868;DHT22;9563;49.240;9.088;2023-04-06T08:07:51;9.90;99.90
18868;DHT22;9563;49.240;9.088;2023-04-06T08:10:20;9.90;99.90
18868;DHT22;9563;49.240;9.088;2023-04-06T08:12:47;9.90;99.90
18868;DHT22;9563;49.240;9.088;2023-04-06T08:15:14;9.70;99.90
18868;DHT22;9563;49.240;9.088;2023-04-06T08:17:43;9.70;99.90
18868;DHT22;9563;49.240;9.088;2023-04-06T08:20:10;9.70;99.90
18868;DHT22;9563;49.240;9.088;2023-04-06T08:22:37;10.00;99.90
18868;DHT22;9563;49.240;9.088;2023-04-06T08:25:05;10.30;99.90
18868;DHT22;9563;49.240;9.088;2023-04-06T08:27:33;10.30;99.90
18868;DHT22;9563;49.240;9.088;2023-04-06T08:30:00;10.70;99.90
18868;DHT22;9563;49.240;9.088;2023-04-06T08:32:27;11.10;99.90
18868;DHT22;9563;49.240;9.088;2023-04-06T08:34:55;11.50;98.30
18868;DHT22;9563;49.240;9.088;2023-04-06T08:37:22;11.70;98.00
18868;DHT22;9563;49.240;9.088;2023-04-06T08:39:49;12.00;96.60
18868;DHT22;9563;49.240;9.088;2023-04-06T08:42:19;12.10;95.70
18868;DHT22;9563;49.240;9.088;2023-04-06T08:44:49;12.30;95.00
18868;DHT22;9563;49.240;9.088;2023-04-06T08:47:16;12.50;95.80
18868;DHT22;9563;49.240;9.088;2023-04-06T08:49:44;12.60;92.70
18868;DHT22;9563;49.240;9.088;2023-04-06T08:52:11;12.70;93.20
18868;DHT22;9563;49.240;9.088;2023-04-06T08:54:38;12.90;92.80
18868;DHT22;9563;49.240;9.088;2023-04-06T08:57:05;13.20;91.50
18868;DHT22;9563;49.240;9.088;2023-04-06T08:59:33;13.30;90.70
18868;DHT22;9563;49.240;9.088;2023-04-06T09:02:04;13.60;90.60
18868;DHT22;9563;49.240;9.088;2023-04-06T09:04:32;13.90;89.30
18868;DHT22;9563;49.240;9.088;2023-04-06T09:07:00;13.90;90.00
18868;DHT22;9563;49.240;9.088;2023-04-06T09:09:27;14.00;90.40
18868;DHT22;9563;49.240;9.088;2023-04-06T09:11:54;14.40;89.60
18868;DHT22;9563;49.240;9.088;2023-04-06T09:14:34;14.80;81.20
18868;DHT22;9563;49.240;9.088;2023-04-06T09:17:03;14.50;78.70
18868;DHT22;9563;49.240;9.088;2023-04-06T09:19:31;14.60;79.40
18868;DHT22;9563;49.240;9.088;2023-04-06T09:22:02;14.40;77.50
18868;DHT22;9563;49.240;9.088;2023-04-06T09:24:39;14.60;76.60
18868;DHT22;9563;49.240;9.088;2023-04-06T09:27:07;14.80;76.30
18868;DHT22;9563;49.240;9.088;2023-04-06T09:29:34;15.00;80.50
18868;DHT22;9563;49.240;9.088;2023-04-06T09:32:05;14.80;77.10
18868;DHT22;9563;49.240;9.088;2023-04-06T09:34:32;15.40;81.90
18868;DHT22;9563;49.240;9.088;2023-04-06T09:37:00;15.00;75.00
18868;DHT22;9563;49.240;9.088;2023-04-06T09:39:27;15.00;79.20
18868;DHT22;9563;49.240;9.088;2023-04-06T09:41:54;15.00;78.20
18868;DHT22;9563;49.240;9.088;2023-04-06T09:44:21;15.60;80.30
18868;DHT22;9563;49.240;9.088;2023-04-06T09:46:50;15.80;75.00
18868;DHT22;9563;49.240;9.088;2023-04-06T09:49:22;16.00;76.20
18868;DHT22;9563;49.240;9.088;2023-04-06T09:51:53;16.20;72.10
18868;DHT22;9563;49.240;9.088;2023-04-06T09:54:22;16.30;69.60
18868;DHT22;9563;49.240;9.088;2023-04-06T09:56:53;16.10;66.60
18868;DHT22;9563;49.240;9.088;2023-04-06T09:59:28;16.40;68.00
18868;DHT22;9563;49.240;9.088;2023-04-06T10:01:59;16.10;68.50
18868;DHT22;9563;49.240;9.088;2023-04-06T10:04:35;16.00;68.60
18868;DHT22;9563;49.240;9.088;2023-04-06T10:07:04;16.20;66.00
18868;DHT22;9563;49.240;9.088;2023-04-06T10:09:32;16.20;66.80
18868;DHT22;9563;49.240;9.088;2023-04-06T10:12:03;16.50;70.00
18868;DHT22;9563;49.240;9.088;2023-04-06T10:14:32;16.80;64.80
18868;DHT22;9563;49.240;9.088;2023-04-06T10:17:01;16.80;63.20
18868;DHT22;9563;49.240;9.088;2023-04-06T10:19:36;16.10;64.50
18868;DHT22;9563;49.240;9.088;2023-04-06T10:22:08;16.10;67.00
18868;DHT22;9563;49.240;9.088;2023-04-06T10:24:36;16.50;67.90
18868;DHT22;9563;49.240;9.088;2023-04-06T10:27:06;16.70;62.50
18868;DHT22;9563;49.240;9.088;2023-04-06T10:29:45;17.00;64.90
18868;DHT22;9563;49.240;9.088;2023-04-06T10:32:13;17.40;63.50
18868;DHT22;9563;49.240;9.088;2023-04-06T10:34:41;17.40;60.50
18868;DHT22;9563;49.240;9.088;2023-04-06T10:37:16;17.80;64.00
18868;DHT22;9563;49.240;9.088;2023-04-06T10:39:47;17.20;60.10
18868;DHT22;9563;49.240;9.088;2023-04-06T10:42:14;16.90;63.10
18868;DHT22;9563;49.240;9.088;2023-04-06T10:44:44;17.20;64.40
18868;DHT22;9563;49.240;9.088;2023-04-06T10:47:18;17.30;62.60
18868;DHT22;9563;49.240;9.088;2023-04-06T10:49:46;17.70;65.70
18868;DHT22;9563;49.240;9.088;2023-04-06T10:52:13;17.70;58.20
18868;DHT22;9563;49.240;9.088;2023-04-06T10:54:42;17.60;59.80
18868;DHT22;9563;49.240;9.088;2023-04-06T10:57:10;17.50;59.60
18868;DHT22;9563;49.240;9.088;2023-04-06T10:59:42;17.30;60.20
18868;DHT22;9563;49.240;9.088;2023-04-06T11:02:19;17.90;65.90
18868;DHT22;9563;49.240;9.088;2023-04-06T11:04:55;18.30;65.10
18868;DHT22;9563;49.240;9.088;2023-04-06T11:07:23;17.80;57.40
18868;DHT22;9563;49.240;9.088;2023-04-06T11:09:52;17.10;58.40
18868;DHT22;9563;49.240;9.088;2023-04-06T11:12:23;17.10;62.10
18868;DHT22;9563;49.240;9.088;2023-04-06T11:14:55;16.60;59.50
18868;DHT22;9563;49.240;9.088;2023-04-06T11:17:26;16.00;59.90
18868;DHT22;9563;49.240;9.088;2023-04-06T11:19:55;15.90;62.80
18868;DHT22;9563;49.240;9.088;2023-04-06T11:22:23;16.10;62.10
18868;DHT22;9563;49.240;9.088;2023-04-06T11:24:50;16.40;59.30
18868;DHT22;9563;49.240;9.088;2023-04-06T11:27:18;16.80;61.70
18868;DHT22;9563;49.240;9.088;2023-04-06T11:29:46;17.30;62.40
18868;DHT22;9563;49.240;9.088;2023-04-06T11:32:20;17.20;60.90
18868;DHT22;9563;49.240;9.088;2023-04-06T11:34:47;17.50;59.50
18868;DHT22;9563;49.240;9.088;2023-04-06T11:37:16;17.50;57.90
18868;DHT22;9563;49.240;9.088;2023-04-06T11:39:47;17.10;59.50
18868;DHT22;9563;49.240;9.088;2023-04-06T11:42:21;17.10;59.40
18868;DHT22;9563;49.240;9.088;2023-04-06T11:44:51;17.40;62.50
18868;DHT22;9563;49.240;9.088;2023-04-06T11:47:18;17.80;59.90
18868;DHT22;9563;49.240;9.088;2023-04-06T11:49:46;17.70;62.30
18868;DHT22;9563;49.240;9.088;2023-04-06T11:52:20;18.10;63.90
18868;DHT22;9563;49.240;9.088;2023-04-06T11:54:48;18.30;59.80
18868;DHT22;9563;49.240;9.088;2023-04-06T11:57:18;17.60;56.20
18868;DHT22;9563;49.240;9.088;2023-04-06T11:59:45;17.80;59.00
18868;DHT22;9563;49.240;9.088;2023-04-06T12:02:13;17.70;57.70
18868;DHT22;9563;49.240;9.088;2023-04-06T12:04:40;17.00;57.20
18868;DHT22;9563;49.240;9.088;2023-04-06T12:07:07;17.40;57.50
18868;DHT22;9563;49.240;9.088;2023-04-06T12:09:35;17.70;58.70
18868;DHT22;9563;49.240;9.088;2023-04-06T12:12:03;17.90;55.90
18868;DHT22;9563;49.240;9.088;2023-04-06T12:14:31;17.90;57.80
18868;DHT22;9563;49.240;9.088;2023-04-06T12:16:58;18.20;61.10
18868;DHT22;9563;49.240;9.088;2023-04-06T12:19:25;18.60;58.90
18868;DHT22;9563;49.240;9.088;2023-04-06T12:21:52;18.70;57.40
18868;DHT22;9563;49.240;9.088;2023-04-06T12:24:19;18.90;55.30
18868;DHT22;9563;49.240;9.088;2023-04-06T12:26:48;18.90;55.50
18868;DHT22;9563;49.240;9.088;2023-04-06T12:29:15;18.30;53.40
18868;DHT22;9563;49.240;9.088;2023-04-06T12:31:43;18.80;57.00
18868;DHT22;9563;49.240;9.088;2023-04-06T12:34:11;19.10;58.40
18868;DHT22;9563;49.240;9.088;2023-04-06T12:36:38;18.90;55.00
18868;DHT22;9563;49.240;9.088;2023-04-06T12:39:05;18.50;54.40
18868;DHT22;9563;49.240;9.088;2023-04-06T12:41:32;18.20;54.50
18868;DHT22;9563;49.240;9.088;2023-04-06T12:44:01;18.00;55.10
18868;DHT22;9563;49.240;9.088;2023-04-06T12:46:29;18.10;53.60
18868;DHT22;9563;49.240;9.088;2023-04-06T12:48:57;17.90;52.90
18868;DHT22;9563;49.240;9.088;2023-04-06T12:51:24;17.80;54.80
18868;DHT22;9563;49.240;9.088;2023-04-06T12:53:54;17.20;52.20
18868;DHT22;9563;49.240;9.088;2023-04-06T12:56:21;16.90;54.40
18868;DHT22;9563;49.240;9.088;2023-04-06T12:58:50;17.20;58.70
18868;DHT22;9563;49.240;9.088;2023-04-06T13:01:19;17.10;56.70
18868;DHT22;9563;49.240;9.088;2023-04-06T13:03:46;16.90;56.70
18868;DHT22;9563;49.240;9.088;2023-04-06T13:06:13;17.60;62.10
18868;DHT22;9563;49.240;9.088;2023-04-06T13:08:40;17.90;56.50
18868;DHT22;9563;49.240;9.088;2023-04-06T13:11:07;18.20;58.00
18868;DHT22;9563;49.240;9.088;2023-04-06T13:13:35;18.40;56.10
18868;DHT22;9563;49.240;9.088;2023-04-06T13:16:05;18.10;57.90
18868;DHT22;9563;49.240;9.088;2023-04-06T13:18:35;18.00;58.30
18868;DHT22;9563;49.240;9.088;2023-04-06T13:21:04;17.80;55.40
18868;DHT22;9563;49.240;9.088;2023-04-06T13:23:31;17.10;56.90
18868;DHT22;9563;49.240;9.088;2023-04-06T13:25:59;17.10;56.30
18868;DHT22;9563;49.240;9.088;2023-04-06T13:28:27;16.70;54.70
18868;DHT22;9563;49.240;9.088;2023-04-06T13:30:54;17.20;59.30
18868;DHT22;9563;49.240;9.088;2023-04-06T13:33:21;16.90;55.30
18868;DHT22;9563;49.240;9.088;2023-04-06T13:35:50;17.00;59.90
18868;DHT22;9563;49.240;9.088;2023-04-06T13:38:17;17.00;59.70
18868;DHT22;9563;49.240;9.088;2023-04-06T13:40:44;17.00;60.80
18868;DHT22;9563;49.240;9.088;2023-04-06T13:43:11;16.80;59.90
18868;DHT22;9563;49.240;9.088;2023-04-06T13:45:39;16.60;61.60
18868;DHT22;9563;49.240;9.088;2023-04-06T13:48:06;16.50;60.00
18868;DHT22;9563;49.240;9.088;2023-04-06T13:50:33;16.50;59.80
18868;DHT22;9563;49.240;9.088;2023-04-06T13:53:02;16.70;59.30
18868;DHT22;9563;49.240;9.088;2023-04-06T13:55:28;17.00;59.40
18868;DHT22;9563;49.240;9.088;2023-04-06T13:57:58;17.40;59.60
18868;DHT22;9563;49.240;9.088;2023-04-06T14:00:24;17.60;57.50
18868;DHT22;9563;49.240;9.088;2023-04-06T14:02:54;17.40;55.10
18868;DHT22;9563;49.240;9.088;2023-04-06T14:05:21;17.70;59.00
18868;DHT22;9563;49.240;9.088;2023-04-06T14:07:49;17.40;53.80
18868;DHT22;9563;49.240;9.088;2023-04-06T14:10:18;17.60;57.70
18868;DHT22;9563;49.240;9.088;2023-04-06T14:12:47;17.40;54.40
18868;DHT22;9563;49.240;9.088;2023-04-06T14:15:14;17.20;53.60
18868;DHT22;9563;49.240;9.088;2023-04-06T14:17:41;16.90;54.00
18868;DHT22;9563;49.240;9.088;2023-04-06T14:20:08;17.00;54.70
18868;DHT22;9563;49.240;9.088;2023-04-06T14:22:39;16.90;55.80
18868;DHT22;9563;49.240;9.088;2023-04-06T14:25:09;17.10;57.00
18868;DHT22;9563;49.240;9.088;2023-04-06T14:27:37;17.30;57.80
18868;DHT22;9563;49.240;9.088;2023-04-06T14:30:05;17.50;55.90
18868;DHT22;9563;49.240;9.088;2023-04-06T14:32:32;17.60;55.70
18868;DHT22;9563;49.240;9.088;2023-04-06T14:34:59;17.50;56.10
18868;DHT22;9563;49.240;9.088;2023-04-06T14:37:26;17.20;52.90
18868;DHT22;9563;49.240;9.088;2023-04-06T14:39:53;16.90;53.00
18868;DHT22;9563;49.240;9.088;2023-04-06T14:42:20;16.50;53.80
18868;DHT22;9563;49.240;9.088;2023-04-06T14:44:49;16.40;55.10
18868;DHT22;9563;49.240;9.088;2023-04-06T14:47:18;16.10;54.90
18868;DHT22;9563;49.240;9.088;2023-04-06T14:49:46;16.20;56.50
18868;DHT22;9563;49.240;9.088;2023-04-06T14:52:13;16.30;56.40
18868;DHT22;9563;49.240;9.088;2023-04-06T14:54:41;16.30;55.30
18868;DHT22;9563;49.240;9.088;2023-04-06T14:57:07;16.50;57.10
18868;DHT22;9563;49.240;9.088;2023-04-06T14:59:35;16.60;55.80
18868;DHT22;9563;49.240;9.088;2023-04-06T15:02:03;16.40;56.30
18868;DHT22;9563;49.240;9.088;2023-04-06T15:04:30;16.30;56.00
18868;DHT22;9563;49.240;9.088;2023-04-06T15:07:00;16.30;57.50
18868;DHT22;9563;49.240;9.088;2023-04-06T15:09:27;16.30;56.00
18868;DHT22;9563;49.240;9.088;2023-04-06T15:11:53;16.20;56.40
18868;DHT22;9563;49.240;9.088;2023-04-06T15:14:21;15.90;55.70
18868;DHT22;9563;49.240;9.088;2023-04-06T15:16:47;15.70;57.80
18868;DHT22;9563;49.240;9.088;2023-04-06T15:19:15;15.80;58.00
18868;DHT22;9563;49.240;9.088;2023-04-06T15:21:42;15.80;59.10
18868;DHT22;9563;49.240;9.088;2023-04-06T15:24:09;15.90;60.60
18868;DHT22;9563;49.240;9.088;2023-04-06T15:26:37;15.90;59.10
18868;DHT22;9563;49.240;9.088;2023-04-06T15:29:04;15.90;60.20
18868;DHT22;9563;49.240;9.088;2023-04-06T15:31:31;15.90;59.60
18868;DHT22;9563;49.240;9.088;2023-04-06T15:33:58;15.90;58.70
18868;DHT22;9563;49.240;9.088;2023-04-06T15:36:28;15.80;58.00
18868;DHT22;9563;49.240;9.088;2023-04-06T15:38:56;15.50;57.70
18868;DHT22;9563;49.240;9.088;2023-04-06T15:41:23;15.40;58.80
18868;DHT22;9563;49.240;9.088;2023-04-06T15:43:51;15.30;58.90
18868;DHT22;9563;49.240;9.088;2023-04-06T15:46:18;15.30;62.60
18868;DHT22;9563;49.240;9.088;2023-04-06T15:48:45;15.20;59.90
18868;DHT22;9563;49.240;9.088;2023-04-06T15:51:12;15.20;62.30
18868;DHT22;9563;49.240;9.088;2023-04-06T15:53:42;14.90;60.20
18868;DHT22;9563;49.240;9.088;2023-04-06T15:56:10;14.90;63.70
18868;DHT22;9563;49.240;9.088;2023-04-06T15:58:39;14.60;66.80
18868;DHT22;9563;49.240;9.088;2023-04-06T16:01:16;14.30;66.70
18868;DHT22;9563;49.240;9.088;2023-04-06T16:03:44;14.10;65.00
18868;DHT22;9563;49.240;9.088;2023-04-06T16:06:11;14.10;68.20
18868;DHT22;9563;49.240;9.088;2023-04-06T16:08:38;14.20;68.90
18868;DHT22;9563;49.240;9.088;2023-04-06T16:11:07;14.00;68.50
18868;DHT22;9563;49.240;9.088;2023-04-06T16:13:34;13.70;69.10
18868;DHT22;9563;49.240;9.088;2023-04-06T16:16:01;13.60;70.50
18868;DHT22;9563;49.240;9.088;2023-04-06T16:18:29;13.40;72.60
18868;DHT22;9563;49.240;9.088;2023-04-06T16:20:56;13.20;72.30
18868;DHT22;9563;49.240;9.088;2023-04-06T16:23:24;13.10;71.70
18868;DHT22;9563;49.240;9.088;2023-04-06T16:25:51;13.00;71.20
18868;DHT22;9563;49.240;9.088;2023-04-06T16:28:20;13.00;72.50
18868;DHT22;9563;49.240;9.088;2023-04-06T16:30:49;12.90;70.90
18868;DHT22;9563;49.240;9.088;2023-04-06T16:33:16;12.80;73.00
18868;DHT22;9563;49.240;9.088;2023-04-06T16:35:44;12.70;74.00
18868;DHT22;9563;49.240;9.088;2023-04-06T16:38:11;12.60;72.60
18868;DHT22;9563;49.240;9.088;2023-04-06T16:40:38;12.60;73.40
18868;DHT22;9563;49.240;9.088;2023-04-06T16:43:05;12.50;72.60
18868;DHT22;9563;49.240;9.088;2023-04-06T16:45:35;12.50;71.60
18868;DHT22;9563;49.240;9.088;2023-04-06T16:48:02;12.40;71.40
18868;DHT22;9563;49.240;9.088;2023-04-06T16:50:29;12.40;71.50
18868;DHT22;9563;49.240;9.088;2023-04-06T16:52:56;12.40;72.20
18868;DHT22;9563;49.240;9.088;2023-04-06T16:55:23;12.30;72.40
18868;DHT22;9563;49.240;9.088;2023-04-06T16:57:54;12.30;72.30
18868;DHT22;9563;49.240;9.088;2023-04-06T17:00:21;12.30;71.10
18868;DHT22;9563;49.240;9.088;2023-04-06T17:02:49;12.30;70.30
18868;DHT22;9563;49.240;9.088;2023-04-06T17:05:16;12.20;71.10
18868;DHT22;9563;49.240;9.088;2023-04-06T17:07:48;12.20;73.60
18868;DHT22;9563;49.240;9.088;2023-04-06T17:10:15;12.10;72.50
18868;DHT22;9563;49.240;9.088;2023-04-06T17:12:42;12.20;69.50
18868;DHT22;9563;49.240;9.088;2023-04-06T17:15:11;12.10;70.30
18868;DHT22;9563;49.240;9.088;2023-04-06T17:17:38;12.10;71.10
18868;DHT22;9563;49.240;9.088;2023-04-06T17:20:08;12.00;71.20
18868;DHT22;9563;49.240;9.088;2023-04-06T17:22:35;12.10;71.70
18868;DHT22;9563;49.240;9.088;2023-04-06T17:25:03;12.10;70.90
18868;DHT22;9563;49.240;9.088;2023-04-06T17:27:31;12.10;72.90
18868;DHT22;9563;49.240;9.088;2023-04-06T17:29:58;12.00;73.10
18868;DHT22;9563;49.240;9.088;2023-04-06T17:32:31;12.00;70.60
18868;DHT22;9563;49.240;9.088;2023-04-06T17:34:58;12.00;73.00
18868;DHT22;9563;49.240;9.088;2023-04-06T17:37:27;11.90;73.80
18868;DHT22;9563;49.240;9.088;2023-04-06T17:39:54;11.90;73.10
18868;DHT22;9563;49.240;9.088;2023-04-06T17:42:21;11.70;73.80
18868;DHT22;9563;49.240;9.088;2023-04-06T17:44:48;11.60;74.90
18868;DHT22;9563;49.240;9.088;2023-04-06T17:47:15;11.60;75.40
18868;DHT22;9563;49.240;9.088;2023-04-06T17:49:41;11.50;77.20
18868;DHT22;9563;49.240;9.088;2023-04-06T17:52:08;11.40;77.10
18868;DHT22;9563;49.240;9.088;2023-04-06T17:54:38;11.40;77.10
18868;DHT22;9563;49.240;9.088;2023-04-06T17:57:04;11.30;78.10
18868;DHT22;9563;49.240;9.088;2023-04-06T17:59:32;11.30;80.20
18868;DHT22;9563;49.240;9.088;2023-04-06T18:01:59;11.30;80.60
18868;DHT22;9563;49.240;9.088;2023-04-06T18:04:27;11.20;81.70
18868;DHT22;9563;49.240;9.088;2023-04-06T18:06:54;11.10;82.60
18868;DHT22;9563;49.240;9.088;2023-04-06T18:09:21;11.10;84.20
18868;DHT22;9563;49.240;9.088;2023-04-06T18:11:49;11.00;86.20
18868;DHT22;9563;49.240;9.088;2023-04-06T18:14:16;11.00;88.10
18868;DHT22;9563;49.240;9.088;2023-04-06T18:16:43;11.00;89.20
18868;DHT22;9563;49.240;9.088;2023-04-06T18:19:10;11.00;89.20
18868;DHT22;9563;49.240;9.088;2023-04-06T18:21:37;11.00;90.20
18868;DHT22;9563;49.240;9.088;2023-04-06T18:24:04;11.00;91.40
18868;DHT22;9563;49.240;9.088;2023-04-06T18:26:31;11.00;88.10
18868;DHT22;9563;49.240;9.088;2023-04-06T18:28:59;11.10;85.20
18868;DHT22;9563;49.240;9.088;2023-04-06T18:31:26;11.20;86.50
18868;DHT22;9563;49.240;9.088;2023-04-06T18:33:55;11.20;86.50
18868;DHT22;9563;49.240;9.088;2023-04-06T18:36:21;11.20;87.40
18868;DHT22;9563;49.240;9.088;2023-04-06T18:38:48;11.20;89.20
18868;DHT22;9563;49.240;9.088;2023-04-06T18:41:15;11.20;89.30
18868;DHT22;9563;49.240;9.088;2023-04-06T18:43:42;11.20;89.60
18868;DHT22;9563;49.240;9.088;2023-04-06T18:46:11;11.20;89.70
18868;DHT22;9563;49.240;9.088;2023-04-06T18:48:39;11.10;90.20
18868;DHT22;9563;49.240;9.088;2023-04-06T18:51:06;11.10;90.80
18868;DHT22;9563;49.240;9.088;2023-04-06T18:53:34;11.10;91.50
18868;DHT22;9563;49.240;9.088;2023-04-06T18:56:00;11.00;91.80
18868;DHT22;9563;49.240;9.088;2023-04-06T18:58:28;11.00;91.80
18868;DHT22;9563;49.240;9.088;2023-04-06T19:00:55;11.10;92.70
18868;DHT22;9563;49.240;9.088;2023-04-06T19:03:24;11.10;93.40
18868;DHT22;9563;49.240;9.088;2023-04-06T19:05:51;11.10;94.60
18868;DHT22;9563;49.240;9.088;2023-04-06T19:08:18;11.10;94.80
18868;DHT22;9563;49.240;9.088;2023-04-06T19:10:45;11.10;95.40
18868;DHT22;9563;49.240;9.088;2023-04-06T19:13:13;11.10;96.00
18868;DHT22;9563;49.240;9.088;2023-04-06T19:15:40;11.10;97.00
18868;DHT22;9563;49.240;9.088;2023-04-06T19:18:07;11.10;98.00
18868;DHT22;9563;49.240;9.088;2023-04-06T19:20:36;11.10;95.80
18868;DHT22;9563;49.240;9.088;2023-04-06T19:23:02;11.00;95.80
18868;DHT22;9563;49.240;9.088;2023-04-06T19:25:30;11.00;96.70
18868;DHT22;9563;49.240;9.088;2023-04-06T19:27:57;11.00;96.50
18868;DHT22;9563;49.240;9.088;2023-04-06T19:30:24;10.90;96.20
18868;DHT22;9563;49.240;9.088;2023-04-06T19:32:51;10.80;95.90
18868;DHT22;9563;49.240;9.088;2023-04-06T19:35:20;10.80;96.60
18868;DHT22;9563;49.240;9.088;2023-04-06T19:37:48;10.80;98.70
18868;DHT22;9563;49.240;9.088;2023-04-06T19:40:15;10.80;99.70
18868;DHT22;9563;49.240;9.088;2023-04-06T19:42:42;10.90;99.90
18868;DHT22;9563;49.240;9.088;2023-04-06T19:45:10;10.90;99.90
18868;DHT22;9563;49.240;9.088;2023-04-06T19:47:37;10.90;99.90
18868;DHT22;9563;49.240;9.088;2023-04-06T19:50:05;10.90;99.90
18868;DHT22;9563;49.240;9.088;2023-04-06T19:52:34;10.90;99.90
18868;DHT22;9563;49.240;9.088;2023-04-06T19:55:03;10.90;99.90
18868;DHT22;9563;49.240;9.088;2023-04-06T19:57:30;10.80;99.90
18868;DHT22;9563;49.240;9.088;2023-04-06T19:59:57;10.80;99.90
18868;DHT22;9563;49.240;9.088;2023-04-06T20:02:24;10.80;99.90
18868;DHT22;9563;49.240;9.088;2023-04-06T20:04:51;10.80;99.90
18868;DHT22;9563;49.240;9.088;2023-04-06T20:07:18;10.80;99.90
18868;DHT22;9563;49.240;9.088;2023-04-06T20:09:53;10.80;99.90
18868;DHT22;9563;49.240;9.088;2023-04-06T20:12:24;10.80;99.90
18868;DHT22;9563;49.240;9.088;2023-04-06T20:14:51;10.70;99.90
18868;DHT22;9563;49.240;9.088;2023-04-06T20:17:18;10.60;99.90
18868;DHT22;9563;49.240;9.088;2023-04-06T20:19:46;10.50;99.90
18868;DHT22;9563;49.240;9.088;2023-04-06T20:22:14;10.50;99.90
18868;DHT22;9563;49.240;9.088;2023-04-06T20:24:41;10.30;99.90
18868;DHT22;9563;49.240;9.088;2023-04-06T20:27:07;10.20;99.90
18868;DHT22;9563;49.240;9.088;2023-04-06T20:29:36;10.20;99.90
18868;DHT22;9563;49.240;9.088;2023-04-06T20:32:03;10.20;99.90
18868;DHT22;9563;49.240;9.088;2023-04-06T20:34:30;10.10;99.90
18868;DHT22;9563;49.240;9.088;2023-04-06T20:36:57;10.00;99.90
18868;DHT22;9563;49.240;9.088;2023-04-06T20:39:24;9.90;99.90
18868;DHT22;9563;49.240;9.088;2023-04-06T20:41:52;9.80;99.90
18868;DHT22;9563;49.240;9.088;2023-04-06T20:44:19;9.70;99.90
18868;DHT22;9563;49.240;9.088;2023-04-06T20:46:47;9.60;99.90
18868;DHT22;9563;49.240;9.088;2023-04-06T20:49:14;9.50;99.90
18868;DHT22;9563;49.240;9.088;2023-04-06T20:51:41;9.50;99.90
18868;DHT22;9563;49.240;9.088;2023-04-06T20:54:10;9.40;99.90